Time;durP1;ratioP1;P1;durP2;ratioP2;P2;SDS_P1;SDS_P2;PMS_P1;PMS_P2;Temp;Humidity;BMP_temperature;BMP_pressure;BME280_temperature;BME280_humidity;BME280_pressure;Samples;Min_cycle;Max_cycle;Signal;HPM_P1;HPM_P2
2022/10/21 00:00:20;;;;;;;13.02;9.20;;;14.10;90.40;;;;;;5052505;28;20049;-27
2022/10/21 00:02:46;;;;;;;12.18;9.18;;;14.10;90.40;;;;;;5054232;28;20025;-27
2022/10/21 00:05:11;;;;;;;12.63;8.55;;;14.10;90.40;;;;;;5052568;28;20102;-31
2022/10/21 00:07:37;;;;;;;10.60;8.52;;;14.20;90.40;;;;;;5054014;28;20084;-25
2022/10/21 00:10:05;;;;;;;12.65;9.27;;;14.10;90.40;;;;;;5053989;28;20029;-26
2022/10/21 00:12:30;;;;;;;12.65;8.80;;;14.20;90.40;;;;;;5054246;28;20104;-26
2022/10/21 00:14:56;;;;;;;11.55;8.75;;;14.20;90.40;;;;;;5054230;28;20745;-25
2022/10/21 00:17:22;;;;;;;12.00;8.93;;;14.20;90.40;;;;;;5054017;28;20028;-25
2022/10/21 00:19:47;;;;;;;9.45;8.40;;;14.30;90.40;;;;;;5053716;28;20178;-26
2022/10/21 00:22:13;;;;;;;12.60;9.00;;;14.30;90.40;;;;;;5053723;28;20030;-29
2022/10/21 00:24:38;;;;;;;13.60;9.07;;;14.30;90.40;;;;;;5053525;28;20064;-26
2022/10/21 00:27:04;;;;;;;11.20;9.10;;;14.30;90.40;;;;;;5053750;28;20046;-25
2022/10/21 00:29:30;;;;;;;13.63;8.63;;;14.40;90.40;;;;;;5053591;28;20461;-30
2022/10/21 00:31:55;;;;;;;11.25;8.57;;;14.40;90.40;;;;;;5053476;28;20483;-27
2022/10/21 00:34:21;;;;;;;10.77;8.30;;;14.40;90.40;;;;;;5053439;28;20025;-25
2022/10/21 00:36:47;;;;;;;10.95;8.35;;;14.40;90.40;;;;;;5052134;28;20032;-32
2022/10/21 00:39:13;;;;;;;13.55;8.55;;;14.50;90.40;;;;;;5052915;28;20021;-25
2022/10/21 00:41:38;;;;;;;12.18;8.88;;;14.50;90.40;;;;;;5053662;28;20034;-34
2022/10/21 00:44:09;;;;;;;11.23;8.45;;;14.50;90.40;;;;;;5053692;28;20029;-24
2022/10/21 00:46:35;;;;;;;11.50;9.02;;;14.50;90.40;;;;;;5053872;28;20025;-29
2022/10/21 00:49:05;;;;;;;10.02;8.52;;;14.50;90.40;;;;;;5053596;28;20499;-26
2022/10/21 00:51:31;;;;;;;9.38;8.30;;;14.50;90.40;;;;;;5053641;28;20043;-31
2022/10/21 00:53:58;;;;;;;10.85;8.38;;;14.50;90.40;;;;;;5053614;28;20051;-25
2022/10/21 00:56:27;;;;;;;9.52;8.43;;;14.50;90.40;;;;;;5053396;28;20143;-28
2022/10/21 00:58:56;;;;;;;11.85;8.30;;;14.50;90.40;;;;;;5053566;28;20056;-31
2022/10/21 01:01:22;;;;;;;9.68;8.35;;;14.50;90.40;;;;;;5052967;28;20041;-24
2022/10/21 01:03:49;;;;;;;10.82;8.57;;;14.50;90.50;;;;;;5053097;28;20088;-32
2022/10/21 01:06:15;;;;;;;12.23;9.00;;;14.50;90.50;;;;;;5051761;28;20039;-26
2022/10/21 01:08:41;;;;;;;11.15;8.90;;;14.50;90.50;;;;;;5053001;28;20104;-32
2022/10/21 01:11:13;;;;;;;12.30;9.10;;;14.50;90.50;;;;;;5053096;28;20133;-27
2022/10/21 01:14:01;;;;;;;10.45;8.82;;;14.50;90.50;;;;;;5052900;28;20381;-29
2022/10/21 01:16:56;;;;;;;12.25;9.10;;;14.50;90.50;;;;;;5052807;28;20029;-29
2022/10/21 01:19:34;;;;;;;11.45;8.95;;;14.50;90.50;;;;;;5052915;28;20404;-25
2022/10/21 01:22:11;;;;;;;11.13;8.98;;;14.40;90.50;;;;;;5052736;28;20028;-31
2022/10/21 01:25:33;;;;;;;13.63;8.48;;;14.40;90.50;;;;;;5052642;28;20123;-26
2022/10/21 01:28:17;;;;;;;9.70;8.35;;;14.40;90.50;;;;;;5000338;28;20071;-30
2022/10/21 01:30:56;;;;;;;10.07;8.73;;;14.30;90.50;;;;;;5052580;28;20051;-25
2022/10/21 01:33:28;;;;;;;11.80;8.90;;;14.30;90.50;;;;;;5052564;28;20111;-27
2022/10/21 01:36:12;;;;;;;12.93;9.07;;;14.30;90.60;;;;;;5052498;28;20021;-26
2022/10/21 01:38:55;;;;;;;13.95;9.05;;;14.30;90.60;;;;;;5052457;28;20031;-27
2022/10/21 01:41:36;;;;;;;11.30;8.85;;;14.20;90.60;;;;;;5052294;28;20029;-26
2022/10/21 01:44:22;;;;;;;12.20;8.95;;;14.20;90.60;;;;;;5052255;28;20024;-25
2022/10/21 01:46:53;;;;;;;13.10;9.18;;;14.10;90.60;;;;;;5052349;28;20029;-28
2022/10/21 01:49:44;;;;;;;12.48;9.15;;;14.10;90.70;;;;;;5052189;28;20067;-27
2022/10/21 01:52:11;;;;;;;14.75;9.27;;;14.00;90.70;;;;;;5051501;28;20495;-28
2022/10/21 01:54:42;;;;;;;13.60;9.68;;;14.00;90.70;;;;;;5052164;28;20449;-25
2022/10/21 01:57:10;;;;;;;12.48;9.48;;;14.00;90.70;;;;;;5052102;28;20136;-28
2022/10/21 01:59:38;;;;;;;13.02;8.80;;;13.90;90.80;;;;;;5051977;28;20049;-25
2022/10/21 02:02:06;;;;;;;12.77;9.15;;;14.00;90.80;;;;;;5052415;28;20025;-25
2022/10/21 02:04:34;;;;;;;13.00;10.00;;;14.00;90.90;;;;;;5052277;28;20120;-28
2022/10/21 02:07:00;;;;;;;12.23;9.68;;;14.00;90.80;;;;;;5050994;28;20024;-39
2022/10/21 02:09:26;;;;;;;13.07;9.18;;;14.00;90.80;;;;;;5052379;28;20028;-43
2022/10/21 02:11:55;;;;;;;13.77;9.55;;;14.10;90.80;;;;;;5051945;28;20028;-37
2022/10/21 02:14:35;;;;;;;12.23;9.65;;;14.10;90.80;;;;;;5051876;28;20037;-41
2022/10/21 02:17:01;;;;;;;14.68;9.80;;;14.10;90.80;;;;;;5051876;28;20029;-41
2022/10/21 02:19:27;;;;;;;12.52;9.95;;;14.10;90.80;;;;;;5052003;28;20029;-39
2022/10/21 02:21:57;;;;;;;12.13;9.45;;;14.10;90.70;;;;;;5051795;28;20029;-41
2022/10/21 02:24:37;;;;;;;13.93;10.02;;;14.10;90.80;;;;;;5051669;28;20253;-42
2022/10/21 02:27:02;;;;;;;12.68;9.38;;;14.10;90.80;;;;;;5051740;28;20044;-35
2022/10/21 02:29:35;;;;;;;11.80;9.68;;;14.00;90.80;;;;;;5051674;28;20025;-33
2022/10/21 02:32:44;;;;;;;11.43;9.20;;;14.00;90.90;;;;;;5051600;28;20013;-33
2022/10/21 02:35:13;;;;;;;12.45;8.80;;;14.00;90.90;;;;;;5051652;28;20029;-35
2022/10/21 02:38:05;;;;;;;11.18;9.15;;;13.90;90.90;;;;;;5051582;28;20086;-35
2022/10/21 02:40:59;;;;;;;14.27;9.07;;;13.90;90.90;;;;;;5051754;28;20032;-36
2022/10/21 02:43:33;;;;;;;13.43;9.75;;;13.90;90.90;;;;;;5051678;28;20029;-35
2022/10/21 02:46:04;;;;;;;13.80;9.43;;;13.80;90.90;;;;;;5050181;28;20036;-37
2022/10/21 02:48:32;;;;;;;12.13;9.10;;;13.80;91.00;;;;;;5051648;28;20475;-37
2022/10/21 02:50:59;;;;;;;13.55;9.20;;;13.80;91.00;;;;;;5050414;28;20021;-34
2022/10/21 02:53:24;;;;;;;12.23;9.25;;;13.80;91.00;;;;;;5051681;28;20472;-35
2022/10/21 02:55:50;;;;;;;13.50;9.55;;;13.70;91.00;;;;;;5051703;28;20078;-33
2022/10/21 02:58:16;;;;;;;11.90;9.60;;;13.70;91.00;;;;;;5051553;28;20013;-34
2022/10/21 03:00:41;;;;;;;12.55;9.63;;;13.70;91.10;;;;;;5051330;28;20087;-35
2022/10/21 03:03:07;;;;;;;14.50;9.90;;;13.70;91.10;;;;;;5051184;28;20494;-33
2022/10/21 03:05:32;;;;;;;14.25;9.55;;;13.70;91.10;;;;;;5051247;28;20029;-34
2022/10/21 03:07:58;;;;;;;14.35;9.68;;;13.60;91.10;;;;;;5051373;28;20045;-33
2022/10/21 03:10:23;;;;;;;13.10;10.10;;;13.60;91.10;;;;;;5051260;28;20026;-35
2022/10/21 03:12:49;;;;;;;16.48;10.02;;;13.60;91.10;;;;;;5051536;28;20024;-34
2022/10/21 03:15:15;;;;;;;15.52;10.25;;;13.60;91.10;;;;;;5051495;28;20025;-35
2022/10/21 03:17:41;;;;;;;15.38;10.25;;;13.60;91.10;;;;;;5051629;28;20021;-33
2022/10/21 03:20:06;;;;;;;16.45;11.13;;;13.60;91.10;;;;;;5051613;28;20487;-33
2022/10/21 03:22:32;;;;;;;16.65;10.43;;;13.60;91.10;;;;;;5051278;28;20433;-33
2022/10/21 03:24:58;;;;;;;13.02;10.32;;;13.60;91.10;;;;;;5051093;28;20029;-34
2022/10/21 03:27:23;;;;;;;15.75;10.07;;;13.60;91.10;;;;;;5051089;28;20021;-43
2022/10/21 03:29:49;;;;;;;15.57;9.95;;;13.60;91.10;;;;;;5051149;28;20020;-36
2022/10/21 03:32:14;;;;;;;14.25;10.50;;;13.60;91.10;;;;;;5051144;28;20100;-35
2022/10/21 03:34:40;;;;;;;14.65;10.35;;;13.50;91.10;;;;;;5051144;28;20100;-35
2022/10/21 03:37:06;;;;;;;13.85;9.93;;;13.60;91.10;;;;;;5051308;28;20431;-35
2022/10/21 03:39:31;;;;;;;15.35;9.93;;;13.60;91.10;;;;;;5051123;28;20021;-35
2022/10/21 03:41:57;;;;;;;15.18;9.93;;;13.60;91.10;;;;;;5051288;28;20033;-33
2022/10/21 03:44:22;;;;;;;16.52;10.60;;;13.50;91.10;;;;;;5051070;28;20385;-34
2022/10/21 03:46:48;;;;;;;14.27;10.07;;;13.50;91.10;;;;;;5051575;28;20021;-34
2022/10/21 03:49:13;;;;;;;13.95;9.88;;;13.50;91.10;;;;;;5051261;28;20020;-35
2022/10/21 03:51:39;;;;;;;13.65;9.80;;;13.50;91.10;;;;;;5051221;28;20025;-35
2022/10/21 03:54:04;;;;;;;15.10;10.10;;;13.50;91.10;;;;;;5051227;28;20389;-42
2022/10/21 03:56:30;;;;;;;13.90;9.30;;;13.50;91.10;;;;;;5049666;28;20069;-33
2022/10/21 03:58:55;;;;;;;11.73;9.50;;;13.40;91.10;;;;;;5051022;28;20021;-34
2022/10/21 04:01:21;;;;;;;12.38;9.85;;;13.40;91.10;;;;;;5050760;28;20162;-33
2022/10/21 04:03:47;;;;;;;15.70;9.85;;;13.40;91.20;;;;;;5050801;28;20480;-36
2022/10/21 04:06:12;;;;;;;14.68;9.77;;;13.40;91.20;;;;;;5050681;28;20018;-39
2022/10/21 04:08:38;;;;;;;15.23;10.50;;;13.30;91.20;;;;;;5049659;28;20104;-39
2022/10/21 04:11:03;;;;;;;12.68;9.50;;;13.30;91.20;;;;;;5050802;28;20029;-34
2022/10/21 04:13:30;;;;;;;15.55;10.05;;;13.30;91.20;;;;;;5051225;28;20025;-34
2022/10/21 04:16:00;;;;;;;16.17;9.73;;;13.30;91.20;;;;;;5054369;28;20017;-35
2022/10/21 04:18:25;;;;;;;14.32;9.95;;;13.30;91.20;;;;;;5053287;28;20079;-35
2022/10/21 04:20:51;;;;;;;15.05;10.18;;;13.30;91.30;;;;;;5053115;28;20033;-35
2022/10/21 04:23:17;;;;;;;13.32;9.75;;;13.30;91.20;;;;;;5054555;28;20427;-36
2022/10/21 04:25:43;;;;;;;14.50;9.85;;;13.30;91.20;;;;;;5054174;28;20029;-33
2022/10/21 04:28:11;;;;;;;14.93;9.23;;;13.30;91.20;;;;;;5054271;28;20025;-34
2022/10/21 04:30:36;;;;;;;14.45;10.10;;;13.20;91.20;;;;;;5052928;28;20032;-36
2022/10/21 04:33:02;;;;;;;14.15;10.32;;;13.20;91.30;;;;;;5053899;28;20033;-35
2022/10/21 04:35:28;;;;;;;13.45;9.52;;;13.20;91.30;;;;;;5054030;28;20679;-35
2022/10/21 04:37:53;;;;;;;14.10;9.95;;;13.20;91.30;;;;;;5053844;28;20414;-35
2022/10/21 04:40:19;;;;;;;12.85;9.80;;;13.10;91.20;;;;;;5054035;28;20060;-35
2022/10/21 04:42:48;;;;;;;12.90;10.02;;;13.10;91.30;;;;;;5053934;28;20093;-37
2022/10/21 04:45:15;;;;;;;13.50;10.35;;;13.10;91.30;;;;;;5053916;28;20134;-36
2022/10/21 04:47:41;;;;;;;14.02;10.15;;;13.10;91.30;;;;;;5054146;28;20028;-44
2022/10/21 04:50:07;;;;;;;14.10;10.10;;;13.20;91.30;;;;;;5052910;28;20037;-44
2022/10/21 04:52:32;;;;;;;14.07;9.88;;;13.10;91.30;;;;;;5053896;28;20029;-35
2022/10/21 04:54:58;;;;;;;15.60;10.27;;;13.10;91.30;;;;;;5053826;28;20025;-35
2022/10/21 04:57:24;;;;;;;13.05;9.73;;;13.10;91.30;;;;;;5053784;28;20431;-36
2022/10/21 04:59:49;;;;;;;11.88;9.27;;;13.10;91.30;;;;;;5053534;28;20539;-35
2022/10/21 05:02:15;;;;;;;13.82;9.75;;;13.10;91.30;;;;;;5053799;28;20027;-38
2022/10/21 05:04:41;;;;;;;15.48;9.70;;;13.10;91.30;;;;;;5053397;28;20485;-34
2022/10/21 05:07:07;;;;;;;15.60;10.68;;;13.00;91.30;;;;;;5053754;28;20454;-35
2022/10/21 05:09:32;;;;;;;12.63;9.65;;;13.00;91.30;;;;;;5053485;28;20407;-35
2022/10/21 05:11:58;;;;;;;13.90;9.98;;;13.00;91.30;;;;;;5053481;28;20465;-45
2022/10/21 05:14:23;;;;;;;13.30;9.77;;;13.00;91.30;;;;;;5053404;28;20392;-37
2022/10/21 05:16:49;;;;;;;14.20;10.07;;;13.00;91.30;;;;;;5053507;28;20028;-35
2022/10/21 05:19:14;;;;;;;15.05;10.07;;;13.00;91.30;;;;;;5053324;28;20078;-35
2022/10/21 05:21:40;;;;;;;14.88;10.02;;;12.90;91.30;;;;;;5053192;28;20031;-36
2022/10/21 05:24:05;;;;;;;14.38;9.85;;;12.90;91.30;;;;;;5053056;28;20033;-43
2022/10/21 05:26:31;;;;;;;11.52;9.63;;;12.90;91.30;;;;;;5053002;28;20055;-38
2022/10/21 05:28:57;;;;;;;14.18;10.25;;;12.90;91.30;;;;;;5051962;28;20043;-37
2022/10/21 05:31:24;;;;;;;11.23;9.32;;;12.80;91.30;;;;;;5053111;28;20055;-37
2022/10/21 05:33:49;;;;;;;13.43;9.95;;;12.80;91.30;;;;;;5053212;28;20112;-35
2022/10/21 05:36:15;;;;;;;15.35;10.32;;;12.80;91.30;;;;;;5052936;28;20052;-36
2022/10/21 05:38:41;;;;;;;12.07;9.23;;;12.80;91.30;;;;;;5051468;28;20021;-35
2022/10/21 05:41:09;;;;;;;12.23;9.25;;;12.70;91.30;;;;;;5052755;28;20021;-36
2022/10/21 05:43:35;;;;;;;15.32;10.15;;;12.70;91.40;;;;;;5052842;28;20028;-35
2022/10/21 05:46:01;;;;;;;13.90;9.95;;;12.80;91.40;;;;;;5052838;28;20028;-34
2022/10/21 05:48:27;;;;;;;184.60;16.73;;;12.70;91.30;;;;;;5052790;28;20029;-36
2022/10/21 05:50:54;;;;;;;17.90;11.27;;;12.70;91.40;;;;;;5052800;28;20017;-35
2022/10/21 05:53:22;;;;;;;15.05;10.30;;;12.80;91.50;;;;;;5052676;28;20028;-35
2022/10/21 05:56:05;;;;;;;14.00;9.40;;;12.80;91.40;;;;;;5050783;28;20017;-35
2022/10/21 05:58:32;;;;;;;14.30;9.50;;;12.80;91.40;;;;;;5051670;28;20071;-35
2022/10/21 06:00:59;;;;;;;12.70;9.00;;;12.80;91.40;;;;;;5052470;28;20356;-35
2022/10/21 06:03:30;;;;;;;12.07;8.82;;;12.90;91.40;;;;;;5052311;28;20107;-34
2022/10/21 06:05:57;;;;;;;12.80;8.40;;;12.90;91.40;;;;;;5051645;28;20373;-35
2022/10/21 06:08:23;;;;;;;13.48;9.10;;;12.90;91.40;;;;;;5052354;28;20025;-35
2022/10/21 06:10:49;;;;;;;14.98;8.60;;;12.90;91.40;;;;;;5052423;28;20472;-37
2022/10/21 06:13:15;;;;;;;12.38;9.55;;;12.90;91.30;;;;;;5052155;28;20017;-36
2022/10/21 06:15:40;;;;;;;15.60;8.77;;;12.90;91.30;;;;;;5052184;28;20108;-44
2022/10/21 06:18:06;;;;;;;12.13;8.77;;;12.90;91.30;;;;;;5052039;28;20087;-33
2022/10/21 06:20:31;;;;;;;11.57;8.77;;;12.90;91.30;;;;;;5052072;28;20021;-35
2022/10/21 06:23:00;;;;;;;10.75;8.15;;;12.90;91.30;;;;;;5052032;28;20025;-36
2022/10/21 06:25:26;;;;;;;12.35;8.48;;;12.90;91.30;;;;;;5051871;28;20069;-35
2022/10/21 06:27:52;;;;;;;11.20;8.60;;;12.90;91.30;;;;;;5051996;28;20101;-35
2022/10/21 06:30:18;;;;;;;10.10;7.53;;;12.90;91.30;;;;;;5051756;28;20472;-36
2022/10/21 06:32:44;;;;;;;9.93;8.00;;;12.90;91.30;;;;;;5051802;28;20492;-33
2022/10/21 06:35:09;;;;;;;11.95;9.10;;;12.90;91.30;;;;;;5052079;28;20017;-35
2022/10/21 06:37:35;;;;;;;13.60;8.55;;;12.90;91.30;;;;;;5051093;28;20029;-36
2022/10/21 06:40:00;;;;;;;13.77;9.27;;;12.90;91.30;;;;;;5051597;28;20032;-41
2022/10/21 06:42:26;;;;;;;13.35;8.88;;;13.00;91.30;;;;;;5051709;28;20064;-36
2022/10/21 06:44:51;;;;;;;10.95;8.50;;;13.00;91.30;;;;;;5051718;28;20021;-36
2022/10/21 06:47:17;;;;;;;12.30;7.85;;;13.00;91.30;;;;;;5051739;28;20021;-36
2022/10/21 06:49:43;;;;;;;13.52;8.35;;;13.10;91.30;;;;;;5051788;28;20492;-35
2022/10/21 06:52:08;;;;;;;11.75;8.32;;;13.10;91.30;;;;;;5051741;28;20047;-36
2022/10/21 06:54:34;;;;;;;10.48;8.20;;;13.20;91.20;;;;;;5051731;28;20033;-37
2022/10/21 06:57:00;;;;;;;11.27;7.43;;;13.20;91.20;;;;;;5051609;28;20040;-40
2022/10/21 06:59:25;;;;;;;10.45;7.40;;;13.20;91.20;;;;;;5051411;28;20041;-36
2022/10/21 07:01:51;;;;;;;10.13;7.82;;;13.30;91.20;;;;;;5051221;28;20051;-34
2022/10/21 07:04:16;;;;;;;14.80;8.70;;;13.40;91.10;;;;;;5051110;28;20032;-36
2022/10/21 07:06:42;;;;;;;11.55;7.93;;;13.40;91.10;;;;;;5051414;28;20078;-35
2022/10/21 07:09:08;;;;;;;11.07;8.73;;;13.50;91.10;;;;;;5051331;28;20021;-36
2022/10/21 07:11:34;;;;;;;11.23;8.52;;;13.50;91.10;;;;;;5051336;28;20353;-36
2022/10/21 07:14:00;;;;;;;12.13;7.90;;;13.50;91.00;;;;;;5051444;28;20031;-35
2022/10/21 07:16:29;;;;;;;12.20;7.85;;;13.60;91.00;;;;;;5051120;28;20021;-36
2022/10/21 07:18:55;;;;;;;13.02;8.35;;;13.60;91.00;;;;;;5051181;28;20032;-36
2022/10/21 07:21:23;;;;;;;11.68;7.88;;;13.60;91.00;;;;;;5051221;28;20028;-35
2022/10/21 07:23:50;;;;;;;14.52;7.95;;;13.70;91.00;;;;;;5051212;28;20060;-35
2022/10/21 07:26:17;;;;;;;10.93;7.63;;;13.70;91.00;;;;;;5051073;28;20377;-35
2022/10/21 07:28:46;;;;;;;10.15;7.45;;;13.70;90.90;;;;;;5051173;28;20021;-35
2022/10/21 07:31:13;;;;;;;12.73;8.15;;;13.80;90.90;;;;;;5051197;28;20051;-37
2022/10/21 07:33:39;;;;;;;10.27;8.15;;;13.80;90.90;;;;;;5051235;28;20397;-36
2022/10/21 07:36:23;;;;;;;12.32;8.70;;;13.90;91.20;;;;;;5051199;28;20421;-39
2022/10/21 07:38:49;;;;;;;;;;;14.00;90.90;;;;;;5051621;28;20021;-39
2022/10/21 07:41:18;;;;;;;9.60;7.28;;;14.00;90.90;;;;;;5051349;28;19905;-35
2022/10/21 07:43:43;;;;;;;10.80;8.38;;;14.00;90.80;;;;;;5051076;28;20025;-36
2022/10/21 07:46:09;;;;;;;11.30;7.90;;;14.00;90.80;;;;;;5051118;28;20037;-33
2022/10/21 07:48:35;;;;;;;13.10;8.48;;;14.10;90.80;;;;;;5050313;28;20013;-35
2022/10/21 07:51:07;;;;;;;10.70;8.32;;;14.10;90.80;;;;;;5055102;28;20051;-35
2022/10/21 07:53:33;;;;;;;13.20;8.10;;;14.20;90.80;;;;;;5054918;28;20060;-34
2022/10/21 07:56:14;;;;;;;12.52;8.23;;;14.20;90.80;;;;;;5054850;28;20074;-35
2022/10/21 07:58:39;;;;;;;9.68;7.70;;;14.30;90.80;;;;;;5054916;28;20024;-36
2022/10/21 08:01:06;;;;;;;14.30;11.98;;;14.30;90.70;;;;;;5054624;28;20047;-36
2022/10/21 08:03:32;;;;;;;12.68;8.77;;;14.40;90.70;;;;;;5054847;28;20029;-35
2022/10/21 08:05:58;;;;;;;11.35;9.05;;;14.40;90.70;;;;;;5054737;28;20087;-35
2022/10/21 08:08:24;;;;;;;11.57;8.27;;;14.40;90.60;;;;;;5054559;28;20063;-34
2022/10/21 08:10:51;;;;;;;11.40;8.50;;;14.50;90.60;;;;;;5054638;28;20083;-35
2022/10/21 08:13:17;;;;;;;9.15;7.82;;;14.60;90.60;;;;;;5054464;28;20395;-36
2022/10/21 08:15:44;;;;;;;10.20;8.20;;;14.60;90.60;;;;;;5054340;28;20021;-35
2022/10/21 08:18:10;;;;;;;13.02;8.40;;;14.70;90.60;;;;;;5054406;28;20102;-34
2022/10/21 08:20:40;;;;;;;12.00;7.70;;;14.70;90.50;;;;;;5054506;28;20481;-37
2022/10/21 08:23:06;;;;;;;14.27;9.70;;;14.80;90.50;;;;;;5054469;28;20029;-37
2022/10/21 08:25:32;;;;;;;14.80;11.85;;;14.80;90.50;;;;;;5054301;28;20059;-33
2022/10/21 08:27:58;;;;;;;12.05;9.95;;;14.90;90.50;;;;;;5054544;28;20421;-35
2022/10/21 08:30:28;;;;;;;11.45;9.07;;;15.00;90.50;;;;;;5054173;28;20025;-34
2022/10/21 08:32:54;;;;;;;11.02;8.23;;;15.00;90.40;;;;;;5054080;28;20028;-37
2022/10/21 08:35:20;;;;;;;11.68;8.07;;;15.00;90.40;;;;;;5054234;28;20064;-35
2022/10/21 08:37:47;;;;;;;9.10;7.18;;;15.10;90.40;;;;;;5053829;28;20561;-36
2022/10/21 08:40:13;;;;;;;9.23;6.95;;;15.10;90.40;;;;;;5053822;28;20023;-33
2022/10/21 08:42:41;;;;;;;8.48;6.63;;;15.20;90.40;;;;;;5053718;28;20036;-35
2022/10/21 08:45:18;;;;;;;8.95;6.75;;;15.20;90.30;;;;;;5052570;28;20033;-35
2022/10/21 08:47:55;;;;;;;10.63;6.88;;;15.30;90.30;;;;;;5053936;28;20029;-35
2022/10/21 08:50:24;;;;;;;7.72;6.50;;;15.30;90.30;;;;;;5053798;28;20025;-34
2022/10/21 08:52:53;;;;;;;9.63;6.97;;;15.40;90.30;;;;;;5053737;28;20021;-33
2022/10/21 08:55:35;;;;;;;8.95;6.68;;;15.40;90.20;;;;;;5053857;28;20024;-26
2022/10/21 08:58:03;;;;;;;9.52;6.78;;;15.40;90.20;;;;;;5053503;28;20025;-37
2022/10/21 09:00:34;;;;;;;8.35;6.78;;;15.50;90.20;;;;;;5052989;28;20103;-36
2022/10/21 09:03:18;;;;;;;8.55;6.90;;;15.50;90.20;;;;;;5053454;28;20060;-36
2022/10/21 09:06:02;;;;;;;6.95;6.25;;;15.50;90.20;;;;;;5053143;28;20033;-33
2022/10/21 09:08:57;;;;;;;9.27;6.20;;;15.60;90.20;;;;;;5053121;28;20032;-34
2022/10/21 09:11:49;;;;;;;7.85;6.35;;;15.60;90.20;;;;;;5053061;28;20111;-33
2022/10/21 09:14:49;;;;;;;8.02;6.55;;;15.60;90.10;;;;;;5042753;28;20080;-35
2022/10/21 09:17:34;;;;;;;8.30;6.22;;;15.60;90.10;;;;;;5049952;28;20037;-31
2022/10/21 09:20:27;;;;;;;8.57;6.18;;;15.70;90.10;;;;;;5053277;28;20057;-29
2022/10/21 09:23:27;;;;;;;8.65;5.97;;;15.70;90.10;;;;;;5053178;28;20556;-40
2022/10/21 09:26:02;;;;;;;7.85;4.75;;;15.70;90.10;;;;;;5034150;28;20044;-30
2022/10/21 09:28:30;;;;;;;7.68;4.85;;;15.70;90.00;;;;;;5053054;28;20074;-43
2022/10/21 09:30:59;;;;;;;8.13;5.70;;;15.70;90.00;;;;;;5051654;28;20309;-44
2022/10/21 09:33:31;;;;;;;6.05;4.68;;;15.70;90.00;;;;;;5053092;28;20052;-44
2022/10/21 09:36:35;;;;;;;5.40;4.75;;;15.80;90.00;;;;;;5052923;28;20025;-44
2022/10/21 09:39:12;;;;;;;7.72;4.63;;;15.80;89.90;;;;;;5052817;28;20025;-33
2022/10/21 09:41:43;;;;;;;6.40;4.40;;;15.80;89.90;;;;;;5052845;28;20472;-35
2022/10/21 09:44:15;;;;;;;5.32;3.92;;;15.90;90.00;;;;;;5052860;28;20021;-35
2022/10/21 09:46:43;;;;;;;6.22;4.70;;;15.90;89.90;;;;;;5052907;28;20388;-33
2022/10/21 09:49:25;;;;;;;5.65;4.45;;;16.00;89.90;;;;;;5052721;28;20013;-29
2022/10/21 09:51:52;;;;;;;7.32;5.13;;;16.00;89.80;;;;;;5052622;28;20047;-33
2022/10/21 09:54:21;;;;;;;7.68;4.97;;;16.00;89.90;;;;;;5052460;28;20044;-33
2022/10/21 09:56:57;;;;;;;6.78;4.70;;;16.00;89.90;;;;;;5052502;28;20037;-32
2022/10/21 09:59:24;;;;;;;9.15;4.50;;;16.10;89.90;;;;;;5050985;28;20504;-35
2022/10/21 10:01:50;;;;;;;6.80;4.95;;;16.10;89.90;;;;;;5052288;28;20024;-30
2022/10/21 10:04:29;;;;;;;6.88;4.22;;;16.00;89.90;;;;;;5050708;28;20021;-30
2022/10/21 10:06:55;;;;;;;7.20;4.28;;;16.00;90.00;;;;;;5052231;28;20024;-29
2022/10/21 10:09:29;;;;;;;6.15;4.13;;;16.00;90.00;;;;;;5050845;28;20106;-34
2022/10/21 10:12:21;;;;;;;5.30;4.53;;;16.00;90.00;;;;;;5051171;28;20009;-32
2022/10/21 10:14:48;;;;;;;6.65;3.97;;;16.00;90.10;;;;;;5051946;28;20106;-44
2022/10/21 10:17:25;;;;;;;5.07;4.30;;;16.00;90.00;;;;;;5051999;28;20025;-35
2022/10/21 10:20:02;;;;;;;5.80;4.47;;;16.10;90.10;;;;;;5052099;28;20029;-42
2022/10/21 10:22:36;;;;;;;6.20;3.85;;;16.20;90.10;;;;;;5051912;28;20027;-42
2022/10/21 10:25:11;;;;;;;6.15;3.80;;;16.20;90.10;;;;;;5050362;28;20480;-34
2022/10/21 10:28:04;;;;;;;5.53;4.10;;;16.30;90.00;;;;;;5051729;28;20025;-27
2022/10/21 10:30:53;;;;;;;7.15;3.95;;;16.40;90.00;;;;;;5051798;28;20424;-37
2022/10/21 10:33:31;;;;;;;5.10;3.80;;;16.50;90.00;;;;;;5051496;28;20036;-30
2022/10/21 10:35:59;;;;;;;5.43;4.03;;;16.50;90.00;;;;;;5051888;28;20112;-30
2022/10/21 10:38:34;;;;;;;7.00;3.95;;;16.60;89.90;;;;;;5051548;28;20079;-27
2022/10/21 10:41:14;;;;;;;6.30;4.07;;;16.60;89.90;;;;;;5050489;28;20037;-34
2022/10/21 10:43:50;;;;;;;6.18;4.03;;;16.70;90.00;;;;;;5050191;28;20021;-34
2022/10/21 10:46:28;;;;;;;4.90;3.80;;;16.70;89.90;;;;;;5051298;28;20040;-33
2022/10/21 10:48:55;;;;;;;4.47;4.00;;;16.80;90.00;;;;;;5051461;28;20024;-42
2022/10/21 10:51:34;;;;;;;5.38;3.95;;;16.80;89.80;;;;;;5051348;28;20139;-35
2022/10/21 10:54:05;;;;;;;5.63;3.80;;;16.90;89.90;;;;;;5051480;28;20490;-29
2022/10/21 10:56:36;;;;;;;6.20;4.10;;;16.90;90.00;;;;;;5051624;28;20075;-29
2022/10/21 10:59:28;;;;;;;6.82;4.63;;;16.90;90.00;;;;;;5051179;28;20029;-29
2022/10/21 11:02:09;;;;;;;8.43;4.60;;;17.00;90.00;;;;;;5051378;28;20108;-28
2022/10/21 11:04:37;;;;;;;6.90;4.20;;;17.00;89.90;;;;;;5051255;28;20056;-27
2022/10/21 11:07:32;;;;;;;4.70;3.97;;;17.00;89.90;;;;;;5049651;28;20134;-30
2022/10/21 11:10:10;;;;;;;5.18;3.67;;;17.10;89.90;;;;;;5051236;28;20025;-31
2022/10/21 11:12:36;;;;;;;3.75;3.33;;;17.10;89.80;;;;;;5051278;28;20100;-31
2022/10/21 11:15:03;;;;;;;5.80;3.67;;;17.10;89.60;;;;;;5051073;28;20077;-27
2022/10/21 11:17:39;;;;;;;6.00;4.20;;;17.10;89.50;;;;;;5050991;28;20041;-28
2022/10/21 11:20:31;;;;;;;5.35;3.97;;;17.10;89.50;;;;;;5051037;28;20028;-31
2022/10/21 11:23:17;;;;;;;4.55;3.50;;;17.10;89.40;;;;;;5052607;28;20033;-28
2022/10/21 11:25:53;;;;;;;5.57;3.70;;;17.10;89.40;;;;;;5055152;28;20044;-31
2022/10/21 11:28:56;;;;;;;4.50;3.55;;;17.10;89.20;;;;;;5055100;28;20078;-26
2022/10/21 11:31:41;;;;;;;4.95;3.30;;;17.20;89.30;;;;;;5042723;28;20045;-41
2022/10/21 11:34:30;;;;;;;5.05;3.08;;;17.20;88.90;;;;;;5055192;28;20037;-42
2022/10/21 11:36:58;;;;;;;4.40;3.30;;;17.20;88.30;;;;;;5055197;28;20053;-41
2022/10/21 11:39:44;;;;;;;4.57;3.60;;;17.30;88.40;;;;;;5055010;28;20029;-35
2022/10/21 11:42:24;;;;;;;4.85;3.05;;;17.30;88.40;;;;;;5054981;28;20498;-34
2022/10/21 11:45:11;;;;;;;4.85;3.40;;;17.40;88.50;;;;;;5055055;28;20081;-36
2022/10/21 11:47:53;;;;;;;4.72;3.08;;;17.40;88.50;;;;;;5055025;28;20514;-33
2022/10/21 11:50:47;;;;;;;6.75;3.13;;;17.50;88.40;;;;;;5054899;28;20021;-27
2022/10/21 11:53:45;;;;;;;4.93;3.25;;;17.60;88.00;;;;;;5054867;28;20547;-40
2022/10/21 11:56:30;;;;;;;6.13;4.20;;;17.70;88.10;;;;;;5053323;28;20108;-27
2022/10/21 11:59:04;;;;;;;4.82;3.17;;;17.90;87.70;;;;;;5054654;28;20030;-28
2022/10/21 12:01:41;;;;;;;8.18;3.53;;;17.90;87.20;;;;;;5054374;28;20403;-29
2022/10/21 12:04:26;;;;;;;5.90;3.60;;;18.00;87.30;;;;;;5054753;28;20227;-30
2022/10/21 12:07:36;;;;;;;3.90;3.10;;;18.10;87.40;;;;;;5054622;28;20222;-29
2022/10/21 12:10:09;;;;;;;5.35;3.53;;;18.20;87.20;;;;;;5049599;28;20025;-31
2022/10/21 12:12:39;;;;;;;4.40;3.33;;;18.30;87.00;;;;;;5054819;28;20380;-34
2022/10/21 12:15:19;;;;;;;4.82;3.33;;;18.40;87.10;;;;;;5054749;28;20512;-30
2022/10/21 12:17:47;;;;;;;4.03;3.28;;;18.40;87.10;;;;;;5054492;28;20048;-28
2022/10/21 12:20:21;;;;;;;6.30;3.80;;;18.50;87.00;;;;;;5054604;28;20036;-29
2022/10/21 12:22:47;;;;;;;;;;;18.60;87.00;;;;;;5054914;28;20165;-30
2022/10/21 12:25:15;;;;;;;5.07;2.97;;;18.60;86.90;;;;;;5054373;28;20435;-33
2022/10/21 12:27:48;;;;;;;3.90;2.50;;;18.70;86.50;;;;;;5054195;28;20029;-28
2022/10/21 12:30:19;;;;;;;5.95;3.03;;;18.70;86.30;;;;;;5054165;28;20385;-31
2022/10/21 12:32:55;;;;;;;3.92;2.80;;;18.80;86.10;;;;;;5053935;28;20110;-31
2022/10/21 12:35:38;;;;;;;3.70;2.63;;;18.90;86.10;;;;;;5052997;28;20035;-29
2022/10/21 12:38:17;;;;;;;4.28;3.08;;;18.90;86.10;;;;;;5054328;28;20032;-35
2022/10/21 12:40:43;;;;;;;4.35;3.00;;;19.00;85.60;;;;;;5054298;28;20037;-29
2022/10/21 12:43:19;;;;;;;5.45;2.70;;;19.00;85.60;;;;;;5052486;28;20029;-38
2022/10/21 12:45:46;;;;;;;4.38;2.90;;;19.00;85.30;;;;;;5053757;28;20032;-30
2022/10/21 12:48:32;;;;;;;3.08;2.20;;;19.00;85.20;;;;;;5053797;28;20025;-29
2022/10/21 12:51:07;;;;;;;3.08;2.33;;;19.00;84.40;;;;;;5053875;28;20033;-34
2022/10/21 12:53:58;;;;;;;3.03;2.47;;;19.00;83.90;;;;;;5053790;28;20036;-30
2022/10/21 12:56:34;;;;;;;3.25;2.58;;;19.10;84.10;;;;;;5043352;28;20116;-29
2022/10/21 12:59:04;;;;;;;3.78;2.50;;;19.10;84.20;;;;;;5053844;28;20484;-26
2022/10/21 13:02:04;;;;;;;4.13;2.53;;;19.10;84.30;;;;;;5053523;28;20029;-30